Terminal Aerodrome Forecast
Issued by NWS

Home | Current Version | Previous Version | Text Only | Print | Product List | Glossary On
Versions: 1 2 3 4 5 6 7 8 9 10 11 12
188
FTUS42 TJSJ 201720
TAFJSJ
TAF
TJSJ 201720Z 2018/2118 07013G20KT P6SM FEW025 SCT040 SCT090
     FM202000 08012KT P6SM FEW025 SCT040
     FM202300 10005KT P6SM SCT030
     FM211400 07015G25KT P6SM VCSH SCT028 SCT040=

USA.gov is the U.S. government's official web portal to all federal, state and local government web resources and services.